sensor_id;sensor_type;location;lat;lon;timestamp;pressure;altitude;pressure_sealevel;temperature
61977;BMP280;45905;50.570;10.428;2024-03-02T00:00:33;96700.53;;;7.38
61977;BMP280;45905;50.570;10.428;2024-03-02T00:03:01;96693.75;;;7.39
61977;BMP280;45905;50.570;10.428;2024-03-02T00:05:29;96697.22;;;7.38
61977;BMP280;45905;50.570;10.428;2024-03-02T00:07:58;96697.38;;;7.36
61977;BMP280;45905;50.570;10.428;2024-03-02T00:10:40;96689.66;;;7.38
61977;BMP280;45905;50.570;10.428;2024-03-02T00:13:12;96681.81;;;7.33
61977;BMP280;45905;50.570;10.428;2024-03-02T00:15:47;96697.25;;;7.30
61977;BMP280;45905;50.570;10.428;2024-03-02T00:18:31;96698.53;;;7.26
61977;BMP280;45905;50.570;10.428;2024-03-02T00:21:01;96710.16;;;7.27
61977;BMP280;45905;50.570;10.428;2024-03-02T00:23:31;96706.09;;;7.26
61977;BMP280;45905;50.570;10.428;2024-03-02T00:25:59;96714.72;;;7.31
61977;BMP280;45905;50.570;10.428;2024-03-02T00:28:31;96707.00;;;7.33
61977;BMP280;45905;50.570;10.428;2024-03-02T00:31:06;96695.38;;;7.32
61977;BMP280;45905;50.570;10.428;2024-03-02T00:33:37;96703.88;;;7.31
61977;BMP280;45905;50.570;10.428;2024-03-02T00:36:06;96699.16;;;7.28
61977;BMP280;45905;50.570;10.428;2024-03-02T00:38:49;96699.50;;;7.25
61977;BMP280;45905;50.570;10.428;2024-03-02T00:41:32;96710.34;;;7.25
61977;BMP280;45905;50.570;10.428;2024-03-02T00:46:36;96704.38;;;7.26
61977;BMP280;45905;50.570;10.428;2024-03-02T00:51:39;96701.22;;;7.24
61977;BMP280;45905;50.570;10.428;2024-03-02T00:54:09;96691.63;;;7.20
61977;BMP280;45905;50.570;10.428;2024-03-02T00:56:38;96710.97;;;7.20
61977;BMP280;45905;50.570;10.428;2024-03-02T00:59:06;96704.22;;;7.20
61977;BMP280;45905;50.570;10.428;2024-03-02T01:01:33;96705.16;;;7.19
61977;BMP280;45905;50.570;10.428;2024-03-02T01:04:01;96707.34;;;7.22
61977;BMP280;45905;50.570;10.428;2024-03-02T01:06:30;96716.19;;;7.26
61977;BMP280;45905;50.570;10.428;2024-03-02T01:08:58;96718.97;;;7.31
61977;BMP280;45905;50.570;10.428;2024-03-02T01:11:27;96720.53;;;7.32
61977;BMP280;45905;50.570;10.428;2024-03-02T01:13:55;96722.91;;;7.33
61977;BMP280;45905;50.570;10.428;2024-03-02T01:16:22;96721.03;;;7.35
61977;BMP280;45905;50.570;10.428;2024-03-02T01:18:50;96723.19;;;7.38
61977;BMP280;45905;50.570;10.428;2024-03-02T01:21:18;96729.97;;;7.38
61977;BMP280;45905;50.570;10.428;2024-03-02T01:23:46;96735.47;;;7.41
61977;BMP280;45905;50.570;10.428;2024-03-02T01:26:14;96729.97;;;7.38
61977;BMP280;45905;50.570;10.428;2024-03-02T01:28:42;96725.28;;;7.35
61977;BMP280;45905;50.570;10.428;2024-03-02T01:31:09;96729.84;;;7.31
61977;BMP280;45905;50.570;10.428;2024-03-02T01:33:36;96716.31;;;7.32
61977;BMP280;45905;50.570;10.428;2024-03-02T01:36:04;96719.59;;;7.33
61977;BMP280;45905;50.570;10.428;2024-03-02T01:38:31;96710.16;;;7.35
61977;BMP280;45905;50.570;10.428;2024-03-02T01:41:00;96729.34;;;7.36
61977;BMP280;45905;50.570;10.428;2024-03-02T01:43:28;96721.34;;;7.32
61977;BMP280;45905;50.570;10.428;2024-03-02T01:45:55;96722.94;;;7.25
61977;BMP280;45905;50.570;10.428;2024-03-02T01:48:24;96732.22;;;7.25
61977;BMP280;45905;50.570;10.428;2024-03-02T01:50:51;96725.63;;;7.24
61977;BMP280;45905;50.570;10.428;2024-03-02T01:53:19;96727.19;;;7.25
61977;BMP280;45905;50.570;10.428;2024-03-02T01:55:47;96728.78;;;7.26
61977;BMP280;45905;50.570;10.428;2024-03-02T01:58:15;96730.00;;;7.30
61977;BMP280;45905;50.570;10.428;2024-03-02T02:00:42;96725.59;;;7.32
61977;BMP280;45905;50.570;10.428;2024-03-02T02:03:10;96736.13;;;7.35
61977;BMP280;45905;50.570;10.428;2024-03-02T02:05:37;96727.59;;;7.36
61977;BMP280;45905;50.570;10.428;2024-03-02T02:08:05;96719.88;;;7.38
61977;BMP280;45905;50.570;10.428;2024-03-02T02:10:33;96729.81;;;7.39
61977;BMP280;45905;50.570;10.428;2024-03-02T02:13:01;96725.56;;;7.40
61977;BMP280;45905;50.570;10.428;2024-03-02T02:15:31;96714.53;;;7.41
61977;BMP280;45905;50.570;10.428;2024-03-02T02:18:02;96706.03;;;7.42
61977;BMP280;45905;50.570;10.428;2024-03-02T02:20:31;96707.59;;;7.43
61977;BMP280;45905;50.570;10.428;2024-03-02T02:23:05;96701.63;;;7.43
61977;BMP280;45905;50.570;10.428;2024-03-02T02:25:33;96693.44;;;7.42
61977;BMP280;45905;50.570;10.428;2024-03-02T02:28:02;96691.22;;;7.39
61977;BMP280;45905;50.570;10.428;2024-03-02T02:30:31;96691.75;;;7.34
61977;BMP280;45905;50.570;10.428;2024-03-02T02:33:00;96699.16;;;7.28
61977;BMP280;45905;50.570;10.428;2024-03-02T02:35:27;96702.78;;;7.25
61977;BMP280;45905;50.570;10.428;2024-03-02T02:37:57;96697.13;;;7.23
61977;BMP280;45905;50.570;10.428;2024-03-02T02:40:27;96694.31;;;7.19
61977;BMP280;45905;50.570;10.428;2024-03-02T02:42:58;96697.94;;;7.16
61977;BMP280;45905;50.570;10.428;2024-03-02T02:45:28;96698.91;;;7.15
61977;BMP280;45905;50.570;10.428;2024-03-02T02:47:56;96698.41;;;7.12
61977;BMP280;45905;50.570;10.428;2024-03-02T02:50:24;96691.38;;;7.07
61977;BMP280;45905;50.570;10.428;2024-03-02T02:52:52;96699.09;;;7.06
61977;BMP280;45905;50.570;10.428;2024-03-02T02:55:19;96687.44;;;7.05
61977;BMP280;45905;50.570;10.428;2024-03-02T02:57:47;96692.47;;;7.05
61977;BMP280;45905;50.570;10.428;2024-03-02T03:00:16;96692.47;;;7.05
61977;BMP280;45905;50.570;10.428;2024-03-02T03:02:49;96681.63;;;7.04
61977;BMP280;45905;50.570;10.428;2024-03-02T03:05:18;96678.47;;;7.03
61977;BMP280;45905;50.570;10.428;2024-03-02T03:07:46;96686.19;;;7.09
61977;BMP280;45905;50.570;10.428;2024-03-02T03:10:16;96686.94;;;7.09
61977;BMP280;45905;50.570;10.428;2024-03-02T03:12:44;96680.16;;;7.10
61977;BMP280;45905;50.570;10.428;2024-03-02T03:15:12;96668.22;;;7.12
61977;BMP280;45905;50.570;10.428;2024-03-02T03:17:40;96682.53;;;7.11
61977;BMP280;45905;50.570;10.428;2024-03-02T03:20:09;96677.06;;;7.08
61977;BMP280;45905;50.570;10.428;2024-03-02T03:22:42;96682.72;;;7.02
61977;BMP280;45905;50.570;10.428;2024-03-02T03:25:11;96682.59;;;6.96
61977;BMP280;45905;50.570;10.428;2024-03-02T03:27:38;96681.66;;;6.89
61977;BMP280;45905;50.570;10.428;2024-03-02T03:30:07;96678.22;;;6.82
61977;BMP280;45905;50.570;10.428;2024-03-02T03:32:34;96674.75;;;6.75
61977;BMP280;45905;50.570;10.428;2024-03-02T03:35:03;96682.94;;;6.77
61977;BMP280;45905;50.570;10.428;2024-03-02T03:37:31;96675.41;;;6.77
61977;BMP280;45905;50.570;10.428;2024-03-02T03:40:05;96669.09;;;6.81
61977;BMP280;45905;50.570;10.428;2024-03-02T03:42:39;96670.50;;;6.84
61977;BMP280;45905;50.570;10.428;2024-03-02T03:45:07;96675.06;;;6.88
61977;BMP280;45905;50.570;10.428;2024-03-02T03:47:36;96675.06;;;6.88
61977;BMP280;45905;50.570;10.428;2024-03-02T03:50:04;96673.19;;;6.90
61977;BMP280;45905;50.570;10.428;2024-03-02T03:52:34;96680.38;;;6.93
61977;BMP280;45905;50.570;10.428;2024-03-02T03:55:02;96668.44;;;6.87
61977;BMP280;45905;50.570;10.428;2024-03-02T03:57:29;96678.53;;;6.87
61977;BMP280;45905;50.570;10.428;2024-03-02T03:59:57;96680.75;;;6.82
61977;BMP280;45905;50.570;10.428;2024-03-02T04:02:25;96682.94;;;6.77
61977;BMP280;45905;50.570;10.428;2024-03-02T04:04:52;96692.38;;;6.75
61977;BMP280;45905;50.570;10.428;2024-03-02T04:07:19;96687.69;;;6.72
61977;BMP280;45905;50.570;10.428;2024-03-02T04:09:47;96683.91;;;6.68
61977;BMP280;45905;50.570;10.428;2024-03-02T04:12:15;96689.72;;;6.69
61977;BMP280;45905;50.570;10.428;2024-03-02T04:14:43;96689.56;;;6.70
61977;BMP280;45905;50.570;10.428;2024-03-02T04:17:10;96691.78;;;6.73
61977;BMP280;45905;50.570;10.428;2024-03-02T04:19:38;96690.66;;;6.76
61977;BMP280;45905;50.570;10.428;2024-03-02T04:22:06;96686.25;;;6.78
61977;BMP280;45905;50.570;10.428;2024-03-02T04:24:47;96689.84;;;6.83
61977;BMP280;45905;50.570;10.428;2024-03-02T04:27:15;96695.50;;;6.85
61977;BMP280;45905;50.570;10.428;2024-03-02T04:29:43;96696.28;;;6.85
61977;BMP280;45905;50.570;10.428;2024-03-02T04:32:10;96695.50;;;6.85
61977;BMP280;45905;50.570;10.428;2024-03-02T04:34:38;96698.81;;;6.85
61977;BMP280;45905;50.570;10.428;2024-03-02T04:37:05;96692.06;;;6.86
61977;BMP280;45905;50.570;10.428;2024-03-02T04:39:35;96693.63;;;6.87
61977;BMP280;45905;50.570;10.428;2024-03-02T04:42:03;96691.59;;;6.90
61977;BMP280;45905;50.570;10.428;2024-03-02T04:44:31;96692.97;;;6.93
61977;BMP280;45905;50.570;10.428;2024-03-02T04:46:59;96696.13;;;6.95
61977;BMP280;45905;50.570;10.428;2024-03-02T04:49:26;96691.09;;;6.95
61977;BMP280;45905;50.570;10.428;2024-03-02T04:51:54;96707.75;;;6.96
61977;BMP280;45905;50.570;10.428;2024-03-02T04:54:22;96709.34;;;6.97
61977;BMP280;45905;50.570;10.428;2024-03-02T04:56:50;96713.72;;;6.95
61977;BMP280;45905;50.570;10.428;2024-03-02T04:59:18;96705.75;;;6.91
61977;BMP280;45905;50.570;10.428;2024-03-02T05:01:46;96699.28;;;6.89
61977;BMP280;45905;50.570;10.428;2024-03-02T05:04:14;96702.59;;;6.89
61977;BMP280;45905;50.570;10.428;2024-03-02T05:06:42;96702.13;;;6.86
61977;BMP280;45905;50.570;10.428;2024-03-02T05:09:09;96707.63;;;6.89
61977;BMP280;45905;50.570;10.428;2024-03-02T05:11:37;96699.91;;;6.91
61977;BMP280;45905;50.570;10.428;2024-03-02T05:14:07;96714.69;;;6.94
61977;BMP280;45905;50.570;10.428;2024-03-02T05:16:35;96723.66;;;6.96
61977;BMP280;45905;50.570;10.428;2024-03-02T05:19:06;96723.66;;;6.96
61977;BMP280;45905;50.570;10.428;2024-03-02T05:21:34;96726.31;;;6.95
61977;BMP280;45905;50.570;10.428;2024-03-02T05:24:03;96717.03;;;6.95
61977;BMP280;45905;50.570;10.428;2024-03-02T05:26:31;96725.53;;;6.94
61977;BMP280;45905;50.570;10.428;2024-03-02T05:28:58;96727.41;;;6.92
61977;BMP280;45905;50.570;10.428;2024-03-02T05:31:26;96728.06;;;6.94
61977;BMP280;45905;50.570;10.428;2024-03-02T05:33:54;96718.78;;;6.95
61977;BMP280;45905;50.570;10.428;2024-03-02T05:36:24;96725.22;;;6.97
61977;BMP280;45905;50.570;10.428;2024-03-02T05:38:52;96730.69;;;7.01
61977;BMP280;45905;50.570;10.428;2024-03-02T05:41:20;96726.16;;;7.04
61977;BMP280;45905;50.570;10.428;2024-03-02T05:43:48;96730.06;;;7.06
61977;BMP280;45905;50.570;10.428;2024-03-02T05:46:15;96727.41;;;7.08
61977;BMP280;45905;50.570;10.428;2024-03-02T05:48:43;96727.22;;;7.09
61977;BMP280;45905;50.570;10.428;2024-03-02T05:51:11;96727.06;;;7.11
61977;BMP280;45905;50.570;10.428;2024-03-02T05:53:38;96723.44;;;7.13
61977;BMP280;45905;50.570;10.428;2024-03-02T05:56:06;96725.00;;;7.14
61977;BMP280;45905;50.570;10.428;2024-03-02T05:58:35;96738.25;;;7.16
61977;BMP280;45905;50.570;10.428;2024-03-02T06:01:20;96738.84;;;7.18
61977;BMP280;45905;50.570;10.428;2024-03-02T06:03:56;96747.38;;;7.17
61977;BMP280;45905;50.570;10.428;2024-03-02T06:06:24;96742.13;;;7.19
61977;BMP280;45905;50.570;10.428;2024-03-02T06:08:52;96745.44;;;7.19
61977;BMP280;45905;50.570;10.428;2024-03-02T06:11:19;96747.81;;;7.21
61977;BMP280;45905;50.570;10.428;2024-03-02T06:13:47;96747.66;;;7.22
61977;BMP280;45905;50.570;10.428;2024-03-02T06:16:15;96736.63;;;7.23
61977;BMP280;45905;50.570;10.428;2024-03-02T06:18:43;96739.00;;;7.24
61977;BMP280;45905;50.570;10.428;2024-03-02T06:21:10;96738.22;;;7.24
61977;BMP280;45905;50.570;10.428;2024-03-02T06:23:37;96741.34;;;7.26
61977;BMP280;45905;50.570;10.428;2024-03-02T06:26:05;96744.47;;;7.28
61977;BMP280;45905;50.570;10.428;2024-03-02T06:28:33;96750.16;;;7.30
61977;BMP280;45905;50.570;10.428;2024-03-02T06:31:01;96755.03;;;7.31
61977;BMP280;45905;50.570;10.428;2024-03-02T06:33:30;96752.34;;;7.33
61977;BMP280;45905;50.570;10.428;2024-03-02T06:35:57;96755.50;;;7.35
61977;BMP280;45905;50.570;10.428;2024-03-02T06:38:24;96749.03;;;7.32
61977;BMP280;45905;50.570;10.428;2024-03-02T06:40:52;96759.41;;;7.37
61977;BMP280;45905;50.570;10.428;2024-03-02T06:43:20;96760.19;;;7.38
61977;BMP280;45905;50.570;10.428;2024-03-02T06:45:51;96766.50;;;7.42
61977;BMP280;45905;50.570;10.428;2024-03-02T06:48:19;96766.50;;;7.42
61977;BMP280;45905;50.570;10.428;2024-03-02T06:50:50;96769.63;;;7.43
61977;BMP280;45905;50.570;10.428;2024-03-02T06:53:19;96767.72;;;7.45
61977;BMP280;45905;50.570;10.428;2024-03-02T06:55:47;96779.22;;;7.48
61977;BMP280;45905;50.570;10.428;2024-03-02T06:58:15;96780.75;;;7.57
61977;BMP280;45905;50.570;10.428;2024-03-02T07:00:43;96765.13;;;7.69
61977;BMP280;45905;50.570;10.428;2024-03-02T07:03:11;96765.72;;;7.79
61977;BMP280;45905;50.570;10.428;2024-03-02T07:05:39;96778.31;;;7.79
61977;BMP280;45905;50.570;10.428;2024-03-02T07:08:07;96775.78;;;7.79
61977;BMP280;45905;50.570;10.428;2024-03-02T07:10:35;96776.53;;;7.79
61977;BMP280;45905;50.570;10.428;2024-03-02T07:13:03;96768.22;;;7.79
61977;BMP280;45905;50.570;10.428;2024-03-02T07:15:30;96765.72;;;7.79
61977;BMP280;45905;50.570;10.428;2024-03-02T07:18:15;96766.31;;;7.80
61977;BMP280;45905;50.570;10.428;2024-03-02T07:20:43;96781.28;;;7.82
61977;BMP280;45905;50.570;10.428;2024-03-02T07:23:11;96777.81;;;7.83
61977;BMP280;45905;50.570;10.428;2024-03-02T07:25:39;96783.31;;;7.86
61977;BMP280;45905;50.570;10.428;2024-03-02T07:28:09;96780.59;;;7.88
61977;BMP280;45905;50.570;10.428;2024-03-02T07:30:37;96780.44;;;7.89
61977;BMP280;45905;50.570;10.428;2024-03-02T07:33:06;96777.13;;;7.89
61977;BMP280;45905;50.570;10.428;2024-03-02T07:35:34;96785.16;;;7.92
61977;BMP280;45905;50.570;10.428;2024-03-02T07:38:02;96780.59;;;7.96
61977;BMP280;45905;50.570;10.428;2024-03-02T07:40:29;96779.44;;;7.98
61977;BMP280;45905;50.570;10.428;2024-03-02T07:42:57;96785.16;;;8.00
61977;BMP280;45905;50.570;10.428;2024-03-02T07:45:24;96780.72;;;8.02
61977;BMP280;45905;50.570;10.428;2024-03-02T07:47:52;96780.22;;;8.06
61977;BMP280;45905;50.570;10.428;2024-03-02T07:50:19;96776.59;;;8.09
61977;BMP280;45905;50.570;10.428;2024-03-02T07:52:47;96782.41;;;8.09
61977;BMP280;45905;50.570;10.428;2024-03-02T07:55:14;96790.63;;;8.11
61977;BMP280;45905;50.570;10.428;2024-03-02T07:57:42;96788.72;;;8.13
61977;BMP280;45905;50.570;10.428;2024-03-02T08:00:10;96782.53;;;8.16
61977;BMP280;45905;50.570;10.428;2024-03-02T08:02:41;96779.69;;;8.19
61977;BMP280;45905;50.570;10.428;2024-03-02T08:05:09;96785.34;;;8.20
61977;BMP280;45905;50.570;10.428;2024-03-02T08:07:37;96785.97;;;8.22
61977;BMP280;45905;50.570;10.428;2024-03-02T08:10:05;96779.00;;;8.24
61977;BMP280;45905;50.570;10.428;2024-03-02T08:12:33;96778.69;;;8.27
61977;BMP280;45905;50.570;10.428;2024-03-02T08:15:01;96786.72;;;8.31
61977;BMP280;45905;50.570;10.428;2024-03-02T08:17:29;96789.03;;;8.32
61977;BMP280;45905;50.570;10.428;2024-03-02T08:20:00;96791.06;;;8.37
61977;BMP280;45905;50.570;10.428;2024-03-02T08:22:29;96789.78;;;8.40
61977;BMP280;45905;50.570;10.428;2024-03-02T08:24:57;96783.97;;;8.40
61977;BMP280;45905;50.570;10.428;2024-03-02T08:27:25;96791.81;;;8.45
61977;BMP280;45905;50.570;10.428;2024-03-02T08:29:52;96794.16;;;8.46
61977;BMP280;45905;50.570;10.428;2024-03-02T08:32:20;96791.47;;;8.48
61977;BMP280;45905;50.570;10.428;2024-03-02T08:34:48;96796.06;;;8.44
61977;BMP280;45905;50.570;10.428;2024-03-02T08:37:15;96799.69;;;8.42
61977;BMP280;45905;50.570;10.428;2024-03-02T08:39:43;96793.72;;;8.43
61977;BMP280;45905;50.570;10.428;2024-03-02T08:42:12;96782.50;;;8.45
61977;BMP280;45905;50.570;10.428;2024-03-02T08:44:40;96789.13;;;8.46
61977;BMP280;45905;50.570;10.428;2024-03-02T08:47:08;96794.94;;;8.47
61977;BMP280;45905;50.570;10.428;2024-03-02T08:49:35;96792.28;;;8.48
61977;BMP280;45905;50.570;10.428;2024-03-02T08:52:03;96780.44;;;8.49
61977;BMP280;45905;50.570;10.428;2024-03-02T08:54:31;96783.38;;;8.52
61977;BMP280;45905;50.570;10.428;2024-03-02T08:57:02;96784.63;;;8.56
61977;BMP280;45905;50.570;10.428;2024-03-02T08:59:30;96787.00;;;8.57
61977;BMP280;45905;50.570;10.428;2024-03-02T09:01:59;96788.53;;;8.58
61977;BMP280;45905;50.570;10.428;2024-03-02T09:04:27;96786.22;;;8.57
61977;BMP280;45905;50.570;10.428;2024-03-02T09:07:01;96787.00;;;8.57
61977;BMP280;45905;50.570;10.428;2024-03-02T09:09:29;96783.50;;;8.58
61977;BMP280;45905;50.570;10.428;2024-03-02T09:11:59;96782.22;;;8.62
61977;BMP280;45905;50.570;10.428;2024-03-02T09:14:28;96790.03;;;8.67
61977;BMP280;45905;50.570;10.428;2024-03-02T09:16:56;96783.88;;;8.70
61977;BMP280;45905;50.570;10.428;2024-03-02T09:19:24;96791.56;;;8.76
61977;BMP280;45905;50.570;10.428;2024-03-02T09:21:51;96785.22;;;8.80
61977;BMP280;45905;50.570;10.428;2024-03-02T09:24:19;96783.59;;;8.87
61977;BMP280;45905;50.570;10.428;2024-03-02T09:26:47;96785.31;;;8.86
61977;BMP280;45905;50.570;10.428;2024-03-02T09:29:15;96792.91;;;8.86
61977;BMP280;45905;50.570;10.428;2024-03-02T09:31:43;96789.88;;;8.91
61977;BMP280;45905;50.570;10.428;2024-03-02T09:34:11;96796.50;;;8.92
61977;BMP280;45905;50.570;10.428;2024-03-02T09:36:39;96795.19;;;8.95
61977;BMP280;45905;50.570;10.428;2024-03-02T09:39:08;96801.47;;;8.99
61977;BMP280;45905;50.570;10.428;2024-03-02T09:41:39;96798.94;;;8.99
61977;BMP280;45905;50.570;10.428;2024-03-02T09:44:07;96805.56;;;9.00
61977;BMP280;45905;50.570;10.428;2024-03-02T09:46:35;96800.59;;;9.07
61977;BMP280;45905;50.570;10.428;2024-03-02T09:49:04;96794.06;;;9.12
61977;BMP280;45905;50.570;10.428;2024-03-02T09:51:32;96800.03;;;9.19
61977;BMP280;45905;50.570;10.428;2024-03-02T09:54:01;96797.75;;;9.24
61977;BMP280;45905;50.570;10.428;2024-03-02T09:56:45;96803.50;;;9.32
61977;BMP280;45905;50.570;10.428;2024-03-02T09:59:12;96801.06;;;9.38
61977;BMP280;45905;50.570;10.428;2024-03-02T10:02:00;96805.09;;;9.47
61977;BMP280;45905;50.570;10.428;2024-03-02T10:04:29;96797.41;;;9.55
61977;BMP280;45905;50.570;10.428;2024-03-02T10:07:17;96797.50;;;9.61
61977;BMP280;45905;50.570;10.428;2024-03-02T10:09:46;96797.34;;;9.63
61977;BMP280;45905;50.570;10.428;2024-03-02T10:12:16;96800.28;;;9.66
61977;BMP280;45905;50.570;10.428;2024-03-02T10:14:45;96792.53;;;9.68
61977;BMP280;45905;50.570;10.428;2024-03-02T10:17:14;96788.72;;;9.72
61977;BMP280;45905;50.570;10.428;2024-03-02T10:19:43;96796.53;;;9.76
61977;BMP280;45905;50.570;10.428;2024-03-02T10:22:10;96789.59;;;9.78
61977;BMP280;45905;50.570;10.428;2024-03-02T10:24:41;96793.94;;;9.84
61977;BMP280;45905;50.570;10.428;2024-03-02T10:27:23;96800.63;;;9.91
61977;BMP280;45905;50.570;10.428;2024-03-02T10:29:51;96806.16;;;9.95
61977;BMP280;45905;50.570;10.428;2024-03-02T10:32:18;96797.22;;;9.99
61977;BMP280;45905;50.570;10.428;2024-03-02T10:34:50;96795.91;;;10.03
61977;BMP280;45905;50.570;10.428;2024-03-02T10:37:18;96802.91;;;10.01
61977;BMP280;45905;50.570;10.428;2024-03-02T10:39:47;96801.16;;;10.01
61977;BMP280;45905;50.570;10.428;2024-03-02T10:42:15;96805.88;;;10.04
61977;BMP280;45905;50.570;10.428;2024-03-02T10:44:45;96801.22;;;10.08
61977;BMP280;45905;50.570;10.428;2024-03-02T10:47:15;96801.59;;;10.05
61977;BMP280;45905;50.570;10.428;2024-03-02T10:49:46;96798.88;;;10.06
61977;BMP280;45905;50.570;10.428;2024-03-02T10:52:15;96803.41;;;10.10
61977;BMP280;45905;50.570;10.428;2024-03-02T10:54:43;96797.63;;;10.16
61977;BMP280;45905;50.570;10.428;2024-03-02T10:57:13;96797.09;;;10.21
61977;BMP280;45905;50.570;10.428;2024-03-02T10:59:53;96792.88;;;10.28
61977;BMP280;45905;50.570;10.428;2024-03-02T11:02:25;96798.63;;;10.36
61977;BMP280;45905;50.570;10.428;2024-03-02T11:04:55;96795.97;;;10.44
61977;BMP280;45905;50.570;10.428;2024-03-02T11:07:24;96796.81;;;10.50
61977;BMP280;45905;50.570;10.428;2024-03-02T11:10:00;96797.69;;;10.57
61977;BMP280;45905;50.570;10.428;2024-03-02T11:13:00;96788.22;;;10.66
61977;BMP280;45905;50.570;10.428;2024-03-02T11:15:30;96796.81;;;10.71
61977;BMP280;45905;50.570;10.428;2024-03-02T11:17:58;96792.59;;;10.78
61977;BMP280;45905;50.570;10.428;2024-03-02T11:20:27;96787.16;;;10.81
61977;BMP280;45905;50.570;10.428;2024-03-02T11:22:56;96787.78;;;10.83
61977;BMP280;45905;50.570;10.428;2024-03-02T11:25:26;96787.22;;;10.87
61977;BMP280;45905;50.570;10.428;2024-03-02T11:30:51;96773.88;;;10.99
61977;BMP280;45905;50.570;10.428;2024-03-02T11:33:24;96784.44;;;11.03
61977;BMP280;45905;50.570;10.428;2024-03-02T11:35:53;96778.00;;;11.06
61977;BMP280;45905;50.570;10.428;2024-03-02T11:38:20;96776.88;;;11.09
61977;BMP280;45905;50.570;10.428;2024-03-02T11:40:48;96763.25;;;11.10
61977;BMP280;45905;50.570;10.428;2024-03-02T11:43:16;96769.50;;;11.14
61977;BMP280;45905;50.570;10.428;2024-03-02T11:45:44;96774.03;;;11.18
61977;BMP280;45905;50.570;10.428;2024-03-02T11:48:15;96764.28;;;11.22
61977;BMP280;45905;50.570;10.428;2024-03-02T11:50:49;96763.72;;;11.26
61977;BMP280;45905;50.570;10.428;2024-03-02T11:53:18;96756.19;;;11.32
61977;BMP280;45905;50.570;10.428;2024-03-02T11:55:46;96749.00;;;11.36
61977;BMP280;45905;50.570;10.428;2024-03-02T11:58:16;96747.47;;;11.41
61977;BMP280;45905;50.570;10.428;2024-03-02T12:00:45;96743.41;;;11.46
61977;BMP280;45905;50.570;10.428;2024-03-02T12:03:14;96724.72;;;11.54
61977;BMP280;45905;50.570;10.428;2024-03-02T12:05:42;96725.53;;;11.61
61977;BMP280;45905;50.570;10.428;2024-03-02T12:08:12;96726.94;;;11.69
61977;BMP280;45905;50.570;10.428;2024-03-02T12:10:39;96712.88;;;11.73
61977;BMP280;45905;50.570;10.428;2024-03-02T12:13:07;96721.13;;;11.82
61977;BMP280;45905;50.570;10.428;2024-03-02T12:15:39;96717.66;;;11.89
61977;BMP280;45905;50.570;10.428;2024-03-02T12:18:07;96711.78;;;11.95
61977;BMP280;45905;50.570;10.428;2024-03-02T12:20:35;96723.53;;;12.02
61977;BMP280;45905;50.570;10.428;2024-03-02T12:23:05;96725.50;;;12.06
61977;BMP280;45905;50.570;10.428;2024-03-02T12:25:33;96713.00;;;12.11
61977;BMP280;45905;50.570;10.428;2024-03-02T12:28:02;96702.28;;;12.16
61977;BMP280;45905;50.570;10.428;2024-03-02T12:30:35;96715.59;;;12.24
61977;BMP280;45905;50.570;10.428;2024-03-02T12:33:03;96703.88;;;12.23
61977;BMP280;45905;50.570;10.428;2024-03-02T12:35:32;96699.94;;;12.27
61977;BMP280;45905;50.570;10.428;2024-03-02T12:38:00;96703.28;;;12.34
61977;BMP280;45905;50.570;10.428;2024-03-02T12:40:28;96707.97;;;12.37
61977;BMP280;45905;50.570;10.428;2024-03-02T12:42:57;96703.09;;;12.41
61977;BMP280;45905;50.570;10.428;2024-03-02T12:45:25;96704.88;;;12.47
61977;BMP280;45905;50.570;10.428;2024-03-02T12:47:53;96700.56;;;12.54
61977;BMP280;45905;50.570;10.428;2024-03-02T12:50:21;96698.78;;;12.61
61977;BMP280;45905;50.570;10.428;2024-03-02T12:52:53;96694.34;;;12.69
61977;BMP280;45905;50.570;10.428;2024-03-02T12:55:23;96700.78;;;12.78
61977;BMP280;45905;50.570;10.428;2024-03-02T12:57:54;96694.75;;;12.85
61977;BMP280;45905;50.570;10.428;2024-03-02T13:00:22;96694.53;;;12.93
61977;BMP280;45905;50.570;10.428;2024-03-02T13:02:51;96690.03;;;13.01
61977;BMP280;45905;50.570;10.428;2024-03-02T13:05:19;96690.78;;;13.08
61977;BMP280;45905;50.570;10.428;2024-03-02T13:07:48;96686.25;;;13.16
61977;BMP280;45905;50.570;10.428;2024-03-02T13:10:17;96683.31;;;13.26
61977;BMP280;45905;50.570;10.428;2024-03-02T13:12:46;96677.81;;;13.35
61977;BMP280;45905;50.570;10.428;2024-03-02T13:15:15;96665.06;;;13.41
61977;BMP280;45905;50.570;10.428;2024-03-02T13:17:47;96666.03;;;13.47
61977;BMP280;45905;50.570;10.428;2024-03-02T13:20:16;96662.28;;;13.49
61977;BMP280;45905;50.570;10.428;2024-03-02T13:22:45;96666.19;;;13.52
61977;BMP280;45905;50.570;10.428;2024-03-02T13:25:14;96668.34;;;13.54
61977;BMP280;45905;50.570;10.428;2024-03-02T13:27:42;96662.84;;;13.57
61977;BMP280;45905;50.570;10.428;2024-03-02T13:30:11;96658.91;;;13.61
61977;BMP280;45905;50.570;10.428;2024-03-02T13:32:38;96660.66;;;13.67
61977;BMP280;45905;50.570;10.428;2024-03-02T13:35:06;96669.66;;;13.70
61977;BMP280;45905;50.570;10.428;2024-03-02T13:37:34;96665.34;;;13.70
61977;BMP280;45905;50.570;10.428;2024-03-02T13:40:05;96665.94;;;13.72
61977;BMP280;45905;50.570;10.428;2024-03-02T13:42:33;96659.06;;;13.73
61977;BMP280;45905;50.570;10.428;2024-03-02T13:45:01;96657.09;;;13.74
61977;BMP280;45905;50.570;10.428;2024-03-02T13:47:29;96659.63;;;13.74
61977;BMP280;45905;50.570;10.428;2024-03-02T13:49:57;96651.78;;;13.76
61977;BMP280;45905;50.570;10.428;2024-03-02T13:52:25;96657.28;;;13.79
61977;BMP280;45905;50.570;10.428;2024-03-02T13:54:53;96652.16;;;13.86
61977;BMP280;45905;50.570;10.428;2024-03-02T13:57:22;96650.59;;;13.91
61977;BMP280;45905;50.570;10.428;2024-03-02T13:59:53;96638.22;;;13.94
61977;BMP280;45905;50.570;10.428;2024-03-02T14:02:22;96642.50;;;14.00
61977;BMP280;45905;50.570;10.428;2024-03-02T14:04:50;96633.06;;;14.07
61977;BMP280;45905;50.570;10.428;2024-03-02T14:07:18;96631.25;;;14.14
61977;BMP280;45905;50.570;10.428;2024-03-02T14:09:45;96628.84;;;14.19
61977;BMP280;45905;50.570;10.428;2024-03-02T14:12:14;96634.69;;;14.26
61977;BMP280;45905;50.570;10.428;2024-03-02T14:14:42;96630.72;;;14.30
61977;BMP280;45905;50.570;10.428;2024-03-02T14:17:09;96619.72;;;14.35
61977;BMP280;45905;50.570;10.428;2024-03-02T14:19:42;96616.34;;;14.41
61977;BMP280;45905;50.570;10.428;2024-03-02T14:22:10;96619.81;;;14.47
61977;BMP280;45905;50.570;10.428;2024-03-02T14:24:37;96619.34;;;14.56